Oxley, Arkansas
Current Conditions -  °F | °C
As of 4:35 AM on Monday 22 Dec 2014 (Local Time) from KCCA Reporting Station
Overcast Overcast  
Wind Chill:   Ceiling: 1600
Heat Index:   Visibility: 8mi
Dew Point:   Wind: 0mph
Humidity: 76%   Direction: NA
Pressure: 29.77"   Gusts: NA
Location:  35.8223°N, 92.5849°W
Report Text: KCCA 221035Z AUTO 00000KT 8SM OVC016 09/05 A2977 RMK AO2
Loading
Personal Weather Stations






























Interactive Weather Map New forecast layout! Learn more

10-Day Weather Forecast

Advertisements
Track Severe Weather on mobile